createdAt,value
2023-03-22T00:02:06.917Z,7.6
2023-03-22T00:07:25.448Z,7.6
2023-03-22T00:13:19.942Z,7.6
2023-03-22T00:18:49.485Z,8.1
2023-03-22T00:24:18.281Z,7.9
2023-03-22T00:29:55.336Z,8.1
2023-03-22T00:35:17.766Z,8.3
2023-03-22T00:40:51.824Z,7.8
2023-03-22T00:46:13.325Z,7.6
2023-03-22T00:51:56.777Z,7.5
2023-03-22T00:57:31.914Z,7.8
2023-03-22T01:02:56.747Z,7.9
2023-03-22T01:08:30.758Z,7.5
2023-03-22T01:14:00.662Z,7.4
2023-03-22T01:19:53.281Z,7.4
2023-03-22T01:25:13.377Z,7.5
2023-03-22T01:30:59.248Z,7.4
2023-03-22T01:36:37.817Z,7.4
2023-03-22T01:42:08.046Z,7.4
2023-03-22T01:47:32.925Z,6.7
2023-03-22T01:52:56.307Z,6.9
2023-03-22T01:58:33.952Z,7.2
2023-03-22T02:04:16.844Z,7
2023-03-22T02:09:46.324Z,6.9
2023-03-22T02:15:17.296Z,6.5
2023-03-22T02:21:02.535Z,6.1
2023-03-22T02:26:15.824Z,5.6
2023-03-22T02:32:00.570Z,5.6
2023-03-22T02:37:29.679Z,5.6
2023-03-22T02:43:05.896Z,5.6
2023-03-22T02:48:25.682Z,5.6
2023-03-22T02:54:15.069Z,5.8
2023-03-22T02:59:45.015Z,6.2
2023-03-22T03:05:17.839Z,5.6
2023-03-22T03:10:43.665Z,5.9
2023-03-22T03:16:13.628Z,5.7
2023-03-22T03:22:04.423Z,5.7
2023-03-22T03:27:24.873Z,5.7
2023-03-22T03:33:10.616Z,5.9
2023-03-22T03:38:25.159Z,5.8
2023-03-22T03:43:55.237Z,5.8
2023-03-22T03:49:50.904Z,5.9
2023-03-22T03:55:14.884Z,5.9
2023-03-22T04:00:51.856Z,6
2023-03-22T04:06:28.463Z,6.4
2023-03-22T04:11:46.923Z,6.1
2023-03-22T04:17:21.569Z,5.6
2023-03-22T04:22:43.602Z,5.3
2023-03-22T04:28:23.562Z,4.9
2023-03-22T04:34:15.282Z,4.6
2023-03-22T04:39:29.020Z,4.4
2023-03-22T04:45:19.716Z,4.7
2023-03-22T04:50:40.287Z,4.8
2023-03-22T04:56:06.587Z,4.6
2023-03-22T05:01:34.949Z,4.4
2023-03-22T05:07:11.682Z,4.6
2023-03-22T05:12:46.003Z,4.5
2023-03-22T05:18:38.577Z,4.8
2023-03-22T05:23:43.618Z,4.8
2023-03-22T05:29:17.051Z,4.6
2023-03-22T05:35:03.684Z,4.7
2023-03-22T05:40:41.078Z,4.6
2023-03-22T05:46:07.073Z,4.7
2023-03-22T05:51:32.668Z,4.5
2023-03-22T05:57:17.441Z,4.2
2023-03-22T06:02:53.295Z,3.9
2023-03-22T06:08:14.970Z,3.9
2023-03-22T06:13:57.087Z,4.2
2023-03-22T06:19:35.124Z,4.6
2023-03-22T06:25:02.550Z,4.9
2023-03-22T06:30:17.988Z,5.1
2023-03-22T06:35:56.483Z,5
2023-03-22T06:41:42.175Z,5
2023-03-22T06:47:10.962Z,5.1
2023-03-22T06:52:37.063Z,5.3
2023-03-22T06:58:06.336Z,5.5
2023-03-22T07:03:51.338Z,6.2
2023-03-22T07:09:17.053Z,6.9
2023-03-22T07:14:53.629Z,7
2023-03-22T07:20:30.921Z,7.2
2023-03-22T07:26:08.241Z,8.2
2023-03-22T07:31:49.940Z,9.5
2023-03-22T07:37:24.277Z,9.1
2023-03-22T07:42:30.638Z,9.1
2023-03-22T07:48:23.387Z,9.6
2023-03-22T07:53:56.004Z,9.7
2023-03-22T07:59:30.695Z,10.9
2023-03-22T08:05:04.692Z,11.2
2023-03-22T08:10:33.058Z,10.5
2023-03-22T08:16:09.953Z,10.9
2023-03-22T08:21:53.168Z,11.1
2023-03-22T08:27:35.478Z,10.7
2023-03-22T08:33:05.928Z,11.3
2023-03-22T08:38:29.755Z,11.8
2023-03-22T08:44:04.005Z,12.1
2023-03-22T08:49:30.460Z,11.6
2023-03-22T08:55:11.459Z,11.3
2023-03-22T09:01:04.284Z,11.7
2023-03-22T09:06:29.197Z,11.1
2023-03-22T09:12:12.429Z,11.4
2023-03-22T09:17:50.689Z,12
2023-03-22T09:23:18.766Z,11.6
2023-03-22T09:28:57.078Z,12.1
2023-03-22T09:34:35.532Z,12.2
2023-03-22T09:39:51.664Z,11.7
2023-03-22T09:45:41.188Z,11.9
2023-03-22T09:51:02.406Z,12.3
2023-03-22T09:56:45.745Z,12.8
2023-03-22T10:02:22.417Z,12.6
2023-03-22T10:07:51.474Z,13.3
2023-03-22T10:13:29.325Z,13.2
2023-03-22T10:19:08.567Z,13.6
2023-03-22T10:24:56.420Z,13.3
2023-03-22T10:30:41.582Z,13.8
2023-03-22T10:36:03.789Z,14.3
2023-03-22T10:41:25.994Z,15.2
2023-03-22T10:47:02.537Z,15.8
2023-03-22T10:53:02.303Z,15.7
2023-03-22T10:58:35.301Z,15.9
2023-03-22T11:04:01.487Z,15.4
2023-03-22T11:09:48.932Z,15.8
2023-03-22T11:15:30.083Z,15.3
2023-03-22T11:21:04.670Z,16
2023-03-22T11:26:46.268Z,16.1
2023-03-22T11:32:05.944Z,15.4
2023-03-22T11:38:00.116Z,16
2023-03-22T11:43:12.148Z,16.2
2023-03-22T11:48:47.517Z,16.3
2023-03-22T11:54:45.537Z,16.4
2023-03-22T12:00:26.137Z,17.1
2023-03-22T12:05:51.394Z,17.4
2023-03-22T12:11:24.548Z,16.8
2023-03-22T12:17:01.155Z,17.6
2023-03-22T12:22:36.026Z,17.6
2023-03-22T12:28:15.721Z,17.4
2023-03-22T12:33:58.804Z,18.3
2023-03-22T12:39:30.341Z,18.5
2023-03-22T12:45:05.328Z,18.4
2023-03-22T12:51:01.800Z,18.4
2023-03-22T12:56:30.495Z,18.4
2023-03-22T13:02:12.603Z,18.6
2023-03-22T13:07:53.466Z,18.9
2023-03-22T13:13:34.180Z,18.7
2023-03-22T13:18:51.814Z,19.4
2023-03-22T13:24:34.231Z,18.9
2023-03-22T13:30:21.165Z,19
2023-03-22T13:36:09.375Z,19
2023-03-22T13:41:46.571Z,19.2
2023-03-22T13:47:16.797Z,18.8
2023-03-22T13:52:53.829Z,18.8
2023-03-22T13:58:38.748Z,18.9
2023-03-22T14:04:05.714Z,18.9
2023-03-22T14:09:58.767Z,18.9
2023-03-22T14:15:18.952Z,19.1
2023-03-22T14:20:56.104Z,18.9
